Time;durP1;ratioP1;P1;durP2;ratioP2;P2;SDS_P1;SDS_P2;PMS_P1;PMS_P2;Temp;Humidity;BMP_temperature;BMP_pressure;BME280_temperature;BME280_humidity;BME280_pressure;Samples;Min_cycle;Max_cycle;Signal;HPM_P1;HPM_P2
2022/04/27 00:00:24;;;;;;;3.30;3.00;;;14.50;69.20;;;;;;5053531;28;20518;-66
2022/04/27 00:02:58;;;;;;;3.03;2.53;;;14.50;69.20;;;;;;5050281;28;20808;-67
2022/04/27 00:05:27;;;;;;;2.90;2.70;;;14.60;69.20;;;;;;5048708;28;20480;-66
2022/04/27 00:07:55;;;;;;;3.00;2.80;;;14.50;69.00;;;;;;5053938;28;20451;-68
2022/04/27 00:10:24;;;;;;;3.20;2.90;;;14.50;69.10;;;;;;5049637;28;20547;-67
2022/04/27 00:12:52;;;;;;;2.93;2.63;;;14.50;69.20;;;;;;5053995;28;20840;-67
2022/04/27 00:15:25;;;;;;;2.87;2.63;;;14.50;69.20;;;;;;5052425;28;20530;-68
2022/04/27 00:17:53;;;;;;;2.97;2.77;;;14.50;69.20;;;;;;5052645;28;21021;-67
2022/04/27 00:20:21;;;;;;;3.30;2.60;;;14.50;69.20;;;;;;5053263;28;20473;-68
2022/04/27 00:22:49;;;;;;;2.90;2.70;;;14.50;69.10;;;;;;5054059;28;20435;-68
2022/04/27 00:25:17;;;;;;;2.70;2.50;;;14.50;69.10;;;;;;5043784;28;21006;-69
2022/04/27 00:27:46;;;;;;;3.90;3.50;;;14.50;69.10;;;;;;5052317;28;20500;-68
2022/04/27 00:30:14;;;;;;;3.37;3.07;;;14.50;69.10;;;;;;5053178;28;20518;-68
2022/04/27 00:32:43;;;;;;;2.30;2.10;;;14.50;69.10;;;;;;5052263;28;20513;-66
2022/04/27 00:35:11;;;;;;;3.83;2.33;;;14.50;69.20;;;;;;5048489;28;20813;-69
2022/04/27 00:37:40;;;;;;;2.60;2.40;;;14.50;69.10;;;;;;5053474;28;20779;-67
2022/04/27 00:40:08;;;;;;;3.00;2.80;;;14.50;69.10;;;;;;5049581;28;20471;-66
2022/04/27 00:42:37;;;;;;;2.77;2.57;;;14.50;69.10;;;;;;5052134;28;20449;-68
2022/04/27 00:45:06;;;;;;;2.57;2.37;;;14.50;69.20;;;;;;5052530;28;20586;-68
2022/04/27 00:47:34;;;;;;;2.60;2.40;;;14.50;69.10;;;;;;5052624;28;20440;-67
2022/04/27 00:50:04;;;;;;;3.20;3.00;;;14.50;69.10;;;;;;5045442;28;20508;-66
2022/04/27 00:52:32;;;;;;;3.00;2.80;;;14.50;69.10;;;;;;5051520;28;21016;-67
2022/04/27 00:55:01;;;;;;;2.60;2.50;;;14.50;69.10;;;;;;5048836;28;20467;-68
2022/04/27 00:57:29;;;;;;;2.93;2.60;;;14.50;69.10;;;;;;5051415;28;20457;-67
2022/04/27 00:59:57;;;;;;;2.47;2.27;;;14.50;69.10;;;;;;5052807;28;20560;-68
2022/04/27 01:02:25;;;;;;;2.63;2.43;;;14.50;69.10;;;;;;5052702;28;20515;-68
2022/04/27 01:04:53;;;;;;;3.10;2.67;;;14.50;69.10;;;;;;5050232;28;20504;-66
2022/04/27 01:07:24;;;;;;;2.63;2.43;;;14.50;69.10;;;;;;5052105;28;20437;-67
2022/04/27 01:09:52;;;;;;;2.87;2.63;;;14.40;69.00;;;;;;5050423;28;20467;-68
2022/04/27 01:12:21;;;;;;;2.37;2.27;;;14.40;68.90;;;;;;5051166;28;20989;-68
2022/04/27 01:15:00;;;;;;;2.60;2.40;;;14.40;69.00;;;;;;5050986;28;20475;-69
2022/04/27 01:17:29;;;;;;;2.83;2.63;;;14.40;69.00;;;;;;5049783;28;20996;-67
2022/04/27 01:19:58;;;;;;;3.70;2.93;;;14.40;69.00;;;;;;5050569;28;20504;-67
2022/04/27 01:22:28;;;;;;;3.00;2.70;;;14.40;69.00;;;;;;5051983;28;20483;-67
2022/04/27 01:24:57;;;;;;;3.10;2.80;;;14.40;69.00;;;;;;5050054;28;20559;-68
2022/04/27 01:27:25;;;;;;;2.60;2.40;;;14.40;69.10;;;;;;5052613;28;20463;-68
2022/04/27 01:29:53;;;;;;;2.70;2.50;;;14.40;69.00;;;;;;5050689;28;20469;-67
2022/04/27 01:32:22;;;;;;;2.27;2.07;;;14.40;69.00;;;;;;5051346;28;20509;-68
2022/04/27 01:34:50;;;;;;;2.87;2.67;;;14.40;69.10;;;;;;5051989;28;20477;-69
2022/04/27 01:40:07;;;;;;;2.70;2.50;;;14.40;69.10;;;;;;5047092;28;20472;-66
2022/04/27 01:42:35;;;;;;;2.87;2.63;;;14.40;69.00;;;;;;5051852;28;20436;-68
2022/04/27 01:45:06;;;;;;;3.40;3.00;;;14.40;68.90;;;;;;5051174;28;20475;-68
2022/04/27 01:47:34;;;;;;;2.97;2.77;;;14.40;68.90;;;;;;5052124;28;20440;-68
2022/04/27 01:50:03;;;;;;;2.50;2.30;;;14.40;68.90;;;;;;5048465;28;21005;-68
2022/04/27 01:55:56;;;;;;;2.87;2.67;;;14.30;68.90;;;;;;5049929;28;20470;-69
2022/04/27 01:58:44;;;;;;;2.83;2.63;;;14.40;69.10;;;;;;5041667;28;20471;-68
2022/04/27 02:01:22;;;;;;;2.63;2.43;;;14.30;69.00;;;;;;5050730;28;20440;-68
2022/04/27 02:03:51;;;;;;;2.57;2.37;;;14.30;68.90;;;;;;5044234;28;20468;-67
2022/04/27 02:06:20;;;;;;;2.70;2.50;;;14.30;68.90;;;;;;5061784;28;20439;-68
2022/04/27 02:08:49;;;;;;;2.70;2.50;;;14.40;69.10;;;;;;5049433;28;20451;-68
2022/04/27 02:11:24;;;;;;;2.87;2.67;;;14.30;68.80;;;;;;5049719;28;20815;-67
2022/04/27 02:14:00;;;;;;;2.33;2.13;;;14.30;68.90;;;;;;5049829;28;20659;-67
2022/04/27 02:16:33;;;;;;;2.63;2.43;;;14.30;68.80;;;;;;5050818;28;20471;-67
2022/04/27 02:19:03;;;;;;;3.27;2.97;;;14.30;68.80;;;;;;5045645;28;20840;-67
2022/04/27 02:21:32;;;;;;;1.93;1.80;;;14.30;68.80;;;;;;5050284;28;20445;-68
2022/04/27 02:24:00;;;;;;;2.67;2.47;;;14.30;68.90;;;;;;5049500;28;20468;-67
2022/04/27 02:26:30;;;;;;;3.37;3.17;;;14.30;68.90;;;;;;5048374;28;20547;-69
2022/04/27 02:29:00;;;;;;;2.73;2.53;;;14.30;68.90;;;;;;5049764;28;20530;-67
2022/04/27 02:31:29;;;;;;;2.50;2.33;;;14.30;68.90;;;;;;5050041;28;20441;-68
2022/04/27 02:33:58;;;;;;;3.13;2.40;;;14.30;69.00;;;;;;5049460;28;20831;-67
2022/04/27 02:36:26;;;;;;;2.70;2.50;;;14.30;68.90;;;;;;5050341;28;20437;-67
2022/04/27 02:38:55;;;;;;;2.80;2.60;;;14.30;68.90;;;;;;5049693;28;20581;-67
2022/04/27 02:41:23;;;;;;;2.80;2.60;;;14.30;68.90;;;;;;5049481;28;20471;-67
2022/04/27 02:43:54;;;;;;;3.30;2.90;;;14.30;68.90;;;;;;5049685;28;20464;-67
2022/04/27 02:46:23;;;;;;;3.30;2.97;;;14.30;68.90;;;;;;5049628;28;20992;-67
2022/04/27 02:54:44;;;;;;;2.27;2.13;;;14.30;68.90;;;;;;5045501;28;20824;-67
2022/04/27 02:57:31;;;;;;;2.97;2.77;;;14.30;68.80;;;;;;5050607;28;20477;-67
2022/04/27 03:00:19;;;;;;;2.90;2.70;;;14.30;68.90;;;;;;5050547;28;21092;-68
2022/04/27 03:03:07;;;;;;;2.83;2.53;;;14.30;68.90;;;;;;5048927;28;20578;-69
2022/04/27 03:05:39;;;;;;;2.63;2.40;;;14.20;68.80;;;;;;5041375;28;20464;-68
2022/04/27 03:08:08;;;;;;;2.57;2.37;;;14.20;68.80;;;;;;5049972;28;20878;-67
2022/04/27 03:10:46;;;;;;;2.87;2.67;;;14.20;68.90;;;;;;5045928;28;20468;-67
2022/04/27 03:13:15;;;;;;;3.33;2.63;;;14.20;68.80;;;;;;5049686;28;20464;-66
2022/04/27 03:15:47;;;;;;;2.53;2.30;;;14.20;68.80;;;;;;5049604;28;20456;-69
2022/04/27 03:18:19;;;;;;;2.50;2.30;;;14.20;68.80;;;;;;5050508;28;21047;-66
2022/04/27 03:20:50;;;;;;;3.40;2.30;;;14.20;68.80;;;;;;5048304;28;20445;-67
2022/04/27 03:23:18;;;;;;;2.40;2.30;;;14.20;68.90;;;;;;5053336;28;20439;-67
2022/04/27 03:25:53;;;;;;;2.57;2.37;;;14.20;68.90;;;;;;5052835;28;20853;-66
2022/04/27 03:28:22;;;;;;;2.73;2.53;;;14.20;68.80;;;;;;5053131;28;20431;-68
2022/04/27 03:30:51;;;;;;;2.10;2.00;;;14.20;68.80;;;;;;5053497;28;20814;-68
2022/04/27 03:33:31;;;;;;;2.53;2.43;;;14.20;68.90;;;;;;5052512;28;20456;-67
2022/04/27 03:35:59;;;;;;;3.00;2.30;;;14.20;68.80;;;;;;5054609;28;20495;-66
2022/04/27 03:38:28;;;;;;;2.80;2.60;;;14.20;68.80;;;;;;5053096;28;20847;-68
2022/04/27 03:40:56;;;;;;;2.77;2.57;;;14.20;68.70;;;;;;5053485;28;20494;-66
2022/04/27 03:43:24;;;;;;;2.70;2.50;;;14.20;68.70;;;;;;5052863;28;20531;-66
2022/04/27 03:45:54;;;;;;;2.80;2.60;;;14.10;70.00;;;;;;5053021;28;20448;-67
2022/04/27 03:48:23;;;;;;;2.87;2.67;;;14.20;68.80;;;;;;5052561;28;20828;-68
2022/04/27 03:50:51;;;;;;;2.90;2.70;;;14.20;68.80;;;;;;5050001;28;20439;-66
2022/04/27 03:53:19;;;;;;;2.00;1.90;;;14.10;68.70;;;;;;5053887;28;20467;-67
2022/04/27 03:55:47;;;;;;;3.20;2.90;;;14.20;68.80;;;;;;5052499;28;20599;-69
2022/04/27 03:58:15;;;;;;;2.27;2.07;;;14.10;68.80;;;;;;5052524;28;20427;-67
2022/04/27 04:01:05;;;;;;;3.10;2.80;;;14.10;68.70;;;;;;5053167;28;20442;-68
2022/04/27 04:03:33;;;;;;;2.63;2.43;;;14.10;68.60;;;;;;5051883;28;20473;-67
2022/04/27 04:06:04;;;;;;;2.77;2.57;;;14.10;68.80;;;;;;5052717;28;20945;-68
2022/04/27 04:08:40;;;;;;;3.40;2.70;;;14.10;68.70;;;;;;5052195;28;20997;-67
2022/04/27 04:11:09;;;;;;;2.73;2.53;;;14.10;68.70;;;;;;5052115;28;20455;-68
2022/04/27 04:13:55;;;;;;;2.70;2.50;;;14.10;68.70;;;;;;5053271;28;20526;-68
2022/04/27 04:16:34;;;;;;;2.70;2.50;;;14.10;68.80;;;;;;5049237;28;20443;-67
2022/04/27 04:19:23;;;;;;;2.60;2.37;;;14.10;68.70;;;;;;5048285;28;20726;-67
2022/04/27 04:22:09;;;;;;;2.70;2.50;;;14.10;68.70;;;;;;5054125;28;20783;-67
2022/04/27 04:28:29;;;;;;;2.70;2.50;;;14.10;68.70;;;;;;5049388;28;20530;-67
2022/04/27 04:30:24;;;;;;;2.77;2.47;;;14.10;68.70;;;;;;5045194;28;20475;-68
2022/04/27 04:33:20;;;;;;;3.60;3.30;;;14.10;68.70;;;;;;5036335;28;20889;-67
2022/04/27 04:35:52;;;;;;;2.67;2.47;;;14.10;68.70;;;;;;5050930;28;20470;-67
2022/04/27 04:38:21;;;;;;;2.90;2.53;;;14.10;68.70;;;;;;5051503;28;20482;-67
2022/04/27 04:40:52;;;;;;;2.80;2.50;;;14.00;68.70;;;;;;5046190;28;20506;-67
2022/04/27 04:43:22;;;;;;;2.40;2.20;;;14.00;68.60;;;;;;5051990;28;20801;-66
2022/04/27 04:45:51;;;;;;;2.70;2.50;;;14.00;68.60;;;;;;5051852;28;20868;-68
2022/04/27 04:48:39;;;;;;;2.60;2.27;;;14.00;68.50;;;;;;5040640;28;20464;-67
2022/04/27 04:51:26;;;;;;;2.97;2.70;;;14.10;68.70;;;;;;5051961;28;20443;-67
2022/04/27 04:54:26;;;;;;;2.50;2.30;;;14.10;68.80;;;;;;5039328;28;21036;-69
2022/04/27 04:57:27;;;;;;;2.53;2.27;;;14.00;68.60;;;;;;5018871;28;20439;-68
2022/04/27 05:00:31;;;;;;;3.03;2.60;;;14.00;68.60;;;;;;5051217;28;20511;-68
2022/04/27 05:03:16;;;;;;;2.50;2.30;;;14.00;68.60;;;;;;5050894;28;20431;-67
2022/04/27 05:06:05;;;;;;;2.70;2.50;;;14.00;68.60;;;;;;5052849;28;20595;-68
2022/04/27 05:08:44;;;;;;;2.40;2.20;;;14.00;68.60;;;;;;5051169;28;20479;-65
2022/04/27 05:11:21;;;;;;;3.17;2.57;;;14.00;68.60;;;;;;5050847;28;20836;-67
2022/04/27 05:14:20;;;;;;;2.60;2.00;;;14.00;68.60;;;;;;5050940;28;20593;-67
2022/04/27 05:17:07;;;;;;;3.10;2.80;;;14.00;68.60;;;;;;5049500;28;20424;-66
2022/04/27 05:19:42;;;;;;;3.10;2.57;;;14.00;69.90;;;;;;5047665;28;20576;-67
2022/04/27 05:22:38;;;;;;;2.40;2.20;;;14.00;68.60;;;;;;5051648;28;20523;-68
2022/04/27 05:25:26;;;;;;;2.40;2.20;;;14.00;68.60;;;;;;5034280;28;20481;-68
2022/04/27 05:28:14;;;;;;;2.50;2.30;;;14.00;68.60;;;;;;5052131;28;20451;-66
2022/04/27 05:34:25;;;;;;;2.47;2.30;;;14.00;68.50;;;;;;5046188;28;20471;-66
2022/04/27 05:37:01;;;;;;;2.50;2.30;;;14.00;68.60;;;;;;5051105;28;20427;-69
2022/04/27 05:39:46;;;;;;;2.33;2.13;;;14.00;68.50;;;;;;5050872;28;20578;-66
2022/04/27 05:42:33;;;;;;;2.77;2.57;;;14.00;68.60;;;;;;5051896;28;20438;-67
2022/04/27 05:45:20;;;;;;;2.87;2.17;;;13.90;68.40;;;;;;5046631;28;20482;-67
2022/04/27 05:48:05;;;;;;;2.80;2.60;;;13.90;68.40;;;;;;5048852;28;20433;-68
2022/04/27 05:51:03;;;;;;;2.70;2.50;;;13.90;68.60;;;;;;5050472;28;20470;-67
2022/04/27 05:53:42;;;;;;;2.40;2.20;;;13.90;68.50;;;;;;5051735;28;20547;-66
2022/04/27 05:56:32;;;;;;;4.60;2.27;;;13.90;68.40;;;;;;5038626;28;20953;-67
2022/04/27 05:59:22;;;;;;;2.50;2.20;;;14.00;68.50;;;;;;5051529;28;20471;-69
2022/04/27 06:02:24;;;;;;;2.77;2.57;;;13.90;68.50;;;;;;5052157;28;20438;-67
2022/04/27 06:04:53;;;;;;;2.37;2.17;;;13.90;68.40;;;;;;5041066;28;20481;-69
2022/04/27 06:07:21;;;;;;;4.03;3.43;;;13.90;68.30;;;;;;5046581;28;20436;-68
2022/04/27 06:09:49;;;;;;;2.67;2.33;;;13.90;68.00;;;;;;5049528;28;20537;-67
2022/04/27 06:12:34;;;;;;;2.97;2.57;;;13.90;68.20;;;;;;5051074;28;21209;-68
2022/04/27 06:15:20;;;;;;;4.57;3.43;;;13.90;68.20;;;;;;5047441;28;20496;-68
2022/04/27 06:17:56;;;;;;;3.77;3.47;;;13.90;68.30;;;;;;5045997;28;20442;-66
2022/04/27 06:20:25;;;;;;;4.90;2.93;;;13.90;68.10;;;;;;5050009;28;20475;-67
2022/04/27 06:22:53;;;;;;;3.20;2.90;;;13.90;68.20;;;;;;5050656;28;20431;-67
2022/04/27 06:25:22;;;;;;;3.30;2.57;;;13.90;68.00;;;;;;5045156;28;20623;-68
2022/04/27 06:28:10;;;;;;;2.87;2.67;;;13.90;68.10;;;;;;5044902;28;20434;-67
2022/04/27 06:30:39;;;;;;;3.67;3.37;;;13.90;68.20;;;;;;5049868;28;20517;-66
2022/04/27 06:33:08;;;;;;;2.60;2.40;;;13.80;67.90;;;;;;5050331;28;20541;-68
2022/04/27 06:35:37;;;;;;;3.40;2.63;;;13.80;68.00;;;;;;5048703;28;20506;-67
2022/04/27 06:38:12;;;;;;;3.50;3.20;;;13.80;68.10;;;;;;5049884;28;20434;-66
2022/04/27 06:41:08;;;;;;;4.30;3.00;;;13.80;68.10;;;;;;5050147;28;20450;-67
2022/04/27 06:43:57;;;;;;;3.00;2.70;;;13.90;68.10;;;;;;5050459;28;20470;-68
2022/04/27 06:46:44;;;;;;;2.90;2.70;;;13.90;68.00;;;;;;5050665;28;20534;-67
2022/04/27 06:49:32;;;;;;;2.50;2.30;;;13.90;68.10;;;;;;5019260;28;20558;-67
2022/04/27 06:52:19;;;;;;;2.77;2.57;;;13.90;68.00;;;;;;5045769;28;20459;-67
2022/04/27 06:55:06;;;;;;;2.77;2.50;;;13.90;68.00;;;;;;5048001;28;20566;-67
2022/04/27 06:57:53;;;;;;;2.90;2.30;;;13.90;67.90;;;;;;5055303;28;20435;-68
2022/04/27 07:00:25;;;;;;;2.50;2.30;;;13.90;68.00;;;;;;5053570;28;20520;-67
2022/04/27 07:02:54;;;;;;;2.50;2.30;;;13.90;68.00;;;;;;5052354;28;20824;-68
2022/04/27 07:05:25;;;;;;;2.83;2.63;;;13.90;67.90;;;;;;5053640;28;20482;-68
2022/04/27 07:07:53;;;;;;;2.63;2.10;;;14.00;68.00;;;;;;5054095;28;20435;-68
2022/04/27 07:10:21;;;;;;;2.53;2.33;;;14.00;67.90;;;;;;5050468;28;20472;-68
2022/04/27 07:12:49;;;;;;;2.40;2.20;;;14.00;67.90;;;;;;5055169;28;20535;-68
2022/04/27 07:15:17;;;;;;;1.97;1.87;;;14.00;69.20;;;;;;5052979;28;20472;-67
2022/04/27 07:17:47;;;;;;;2.50;2.30;;;14.00;67.80;;;;;;5055324;28;20569;-67
2022/04/27 07:20:15;;;;;;;2.30;2.10;;;14.00;67.80;;;;;;5047643;28;20468;-68
2022/04/27 07:22:44;;;;;;;2.57;2.27;;;14.00;67.80;;;;;;5054499;28;20870;-66
2022/04/27 07:25:12;;;;;;;3.00;2.70;;;14.00;67.70;;;;;;5050986;28;20575;-65
2022/04/27 07:27:40;;;;;;;3.03;2.40;;;14.00;67.70;;;;;;5054933;28;20517;-68
2022/04/27 07:30:10;;;;;;;2.43;2.33;;;14.00;67.80;;;;;;5053499;28;20511;-68
2022/04/27 07:32:38;;;;;;;3.30;3.00;;;14.00;67.80;;;;;;5053472;28;20443;-68
2022/04/27 07:35:08;;;;;;;2.57;2.37;;;14.00;67.60;;;;;;5048420;28;20467;-67
2022/04/27 07:37:38;;;;;;;4.20;2.47;;;14.00;67.50;;;;;;5054352;28;20432;-67
2022/04/27 07:40:25;;;;;;;3.03;2.83;;;14.00;67.40;;;;;;5041736;28;20480;-67
2022/04/27 07:42:53;;;;;;;4.13;3.30;;;14.00;67.50;;;;;;5042750;28;20436;-67
2022/04/27 07:45:21;;;;;;;5.00;3.93;;;14.00;67.30;;;;;;5042099;28;20542;-68
2022/04/27 07:47:49;;;;;;;3.37;3.07;;;14.00;66.90;;;;;;5045782;28;20452;-67
2022/04/27 07:50:20;;;;;;;4.17;3.73;;;14.00;67.00;;;;;;5046061;28;20492;-66
2022/04/27 07:52:48;;;;;;;3.40;3.10;;;14.00;67.20;;;;;;5049728;28;20469;-67
2022/04/27 07:55:16;;;;;;;3.70;3.40;;;14.10;67.20;;;;;;5048774;28;20477;-67
2022/04/27 07:57:45;;;;;;;7.93;7.13;;;14.00;67.20;;;;;;5045446;28;20444;-66
2022/04/27 08:00:14;;;;;;;6.37;5.77;;;14.00;66.80;;;;;;5046010;28;20464;-67
2022/04/27 08:02:43;;;;;;;5.47;4.83;;;14.10;66.80;;;;;;5054148;28;20477;-68
2022/04/27 08:05:12;;;;;;;5.20;4.70;;;14.00;66.70;;;;;;5033865;28;20507;-68
2022/04/27 08:07:44;;;;;;;5.77;4.37;;;14.00;66.80;;;;;;5034659;28;20803;-68
2022/04/27 08:10:14;;;;;;;4.03;3.63;;;14.00;66.80;;;;;;5034096;28;20481;-68
2022/04/27 08:12:46;;;;;;;5.40;3.97;;;14.00;66.80;;;;;;5050952;28;20421;-68
2022/04/27 08:15:15;;;;;;;5.10;4.10;;;14.00;66.90;;;;;;5053540;28;20557;-69
2022/04/27 08:17:54;;;;;;;7.23;4.30;;;14.00;67.00;;;;;;5053610;28;20424;-68
2022/04/27 08:23:13;;;;;;;3.97;3.67;;;14.00;67.00;;;;;;5037141;28;20464;-69
2022/04/27 08:25:45;;;;;;;3.97;3.10;;;14.10;67.20;;;;;;5047467;28;20883;-68
2022/04/27 08:28:14;;;;;;;6.20;4.40;;;14.00;67.00;;;;;;5053824;28;20412;-69
2022/04/27 08:30:44;;;;;;;3.47;3.17;;;14.00;67.00;;;;;;5052140;28;20446;-67
2022/04/27 08:33:13;;;;;;;7.53;3.67;;;14.00;67.00;;;;;;5040252;28;20783;-68
2022/04/27 08:35:42;;;;;;;3.40;3.10;;;14.10;67.20;;;;;;5033520;28;20990;-68
2022/04/27 08:38:12;;;;;;;3.63;3.33;;;14.10;67.20;;;;;;5034242;28;20459;-67
2022/04/27 08:40:41;;;;;;;3.53;3.20;;;14.00;67.00;;;;;;5033646;28;20485;-67
2022/04/27 08:43:10;;;;;;;5.63;2.97;;;14.10;67.20;;;;;;5034384;28;20934;-67
2022/04/27 08:45:41;;;;;;;4.80;3.30;;;14.10;67.20;;;;;;5033607;28;20428;-66
2022/04/27 08:48:10;;;;;;;3.70;2.93;;;14.00;67.00;;;;;;5033941;28;20421;-67
2022/04/27 08:50:39;;;;;;;3.13;2.83;;;14.10;67.20;;;;;;5033217;28;20523;-67
2022/04/27 08:53:07;;;;;;;3.30;2.93;;;14.00;67.10;;;;;;5033666;28;20432;-67
2022/04/27 08:55:38;;;;;;;3.47;3.17;;;14.00;67.10;;;;;;5032728;28;20567;-67
2022/04/27 08:58:08;;;;;;;3.10;2.90;;;14.10;67.20;;;;;;5033812;28;20453;-67
2022/04/27 09:00:56;;;;;;;2.53;2.33;;;14.10;67.20;;;;;;5048695;28;20527;-66
2022/04/27 09:03:29;;;;;;;3.50;3.10;;;14.10;67.20;;;;;;5033222;28;20788;-66
2022/04/27 09:06:03;;;;;;;2.90;2.70;;;14.00;67.10;;;;;;5033561;28;20817;-68
2022/04/27 09:08:39;;;;;;;4.03;2.80;;;14.10;67.20;;;;;;5033185;28;20520;-67
2022/04/27 09:11:19;;;;;;;3.40;2.97;;;14.00;67.20;;;;;;5033254;28;20445;-67
2022/04/27 09:13:49;;;;;;;3.37;3.07;;;14.10;67.30;;;;;;5032651;28;20962;-67
2022/04/27 09:16:19;;;;;;;2.70;2.50;;;14.10;67.30;;;;;;5033180;28;20831;-66
2022/04/27 09:21:58;;;;;;;3.73;3.10;;;14.10;67.30;;;;;;5012729;28;20866;-67
2022/04/27 09:24:27;;;;;;;2.97;2.67;;;14.10;67.30;;;;;;5032446;28;20883;-68
2022/04/27 09:27:02;;;;;;;3.43;2.90;;;14.00;67.30;;;;;;5033328;28;20803;-67
2022/04/27 09:29:30;;;;;;;2.70;2.50;;;14.10;67.30;;;;;;5032475;28;20456;-68
2022/04/27 09:31:59;;;;;;;3.47;3.17;;;14.10;67.30;;;;;;5032990;28;20523;-67
2022/04/27 09:34:31;;;;;;;3.60;3.27;;;14.10;67.30;;;;;;5032116;28;20473;-68
2022/04/27 09:37:03;;;;;;;3.50;3.20;;;14.10;67.30;;;;;;5033026;28;20460;-68
2022/04/27 09:39:31;;;;;;;3.00;2.70;;;14.10;67.40;;;;;;5032202;28;21133;-68
2022/04/27 09:42:06;;;;;;;3.00;2.67;;;14.10;67.40;;;;;;5032800;28;20430;-67
2022/04/27 09:44:35;;;;;;;3.40;3.10;;;14.10;67.30;;;;;;5031857;28;20504;-68
2022/04/27 09:47:04;;;;;;;2.80;2.20;;;14.10;67.40;;;;;;5032605;28;20976;-66
2022/04/27 09:49:34;;;;;;;2.57;2.37;;;14.10;67.40;;;;;;5031965;28;20508;-69
2022/04/27 09:52:04;;;;;;;3.70;3.07;;;14.10;67.40;;;;;;5032723;28;20429;-67
2022/04/27 09:54:34;;;;;;;3.33;3.03;;;14.10;67.40;;;;;;5031718;28;20570;-67
2022/04/27 09:57:06;;;;;;;3.90;3.37;;;14.10;67.50;;;;;;5032414;28;21006;-68
2022/04/27 09:59:35;;;;;;;2.77;2.57;;;14.00;67.40;;;;;;5032010;28;20461;-68
2022/04/27 10:02:07;;;;;;;3.37;2.73;;;14.10;67.50;;;;;;5032444;28;20440;-67
2022/04/27 10:04:37;;;;;;;3.60;3.30;;;14.10;67.50;;;;;;5043947;28;20882;-68
2022/04/27 10:07:10;;;;;;;2.70;2.50;;;14.10;67.60;;;;;;5032467;28;20489;-68
2022/04/27 10:09:38;;;;;;;3.50;3.20;;;14.10;67.50;;;;;;5031418;28;20470;-67
2022/04/27 10:12:13;;;;;;;3.40;3.00;;;14.10;67.60;;;;;;5032622;28;20432;-67
2022/04/27 10:14:42;;;;;;;2.80;2.60;;;14.10;67.60;;;;;;5031461;28;21056;-65
2022/04/27 10:17:11;;;;;;;3.50;3.20;;;14.10;67.70;;;;;;5035310;28;20471;-67
2022/04/27 10:19:45;;;;;;;3.37;3.10;;;14.10;67.60;;;;;;5040392;28;20472;-67
2022/04/27 10:22:26;;;;;;;3.50;3.20;;;14.10;67.70;;;;;;5031970;28;20961;-66
2022/04/27 10:24:56;;;;;;;2.93;2.63;;;14.10;67.70;;;;;;5039456;28;20485;-68
2022/04/27 10:27:35;;;;;;;5.20;4.80;;;14.10;67.70;;;;;;5044922;28;20437;-66
2022/04/27 10:30:05;;;;;;;8.27;7.57;;;14.10;67.30;;;;;;5040649;28;20471;-67
2022/04/27 10:32:38;;;;;;;8.30;7.50;;;14.10;66.80;;;;;;5045480;28;20432;-65
2022/04/27 10:35:27;;;;;;;8.17;7.40;;;14.20;66.50;;;;;;5047959;28;20476;-66
2022/04/27 10:38:02;;;;;;;9.80;7.60;;;14.20;66.10;;;;;;5047572;28;20538;-67
2022/04/27 10:40:35;;;;;;;9.23;8.30;;;14.30;66.10;;;;;;5039954;28;21154;-67
2022/04/27 10:43:13;;;;;;;10.00;7.50;;;14.30;65.90;;;;;;5046535;28;20508;-66
2022/04/27 10:45:44;;;;;;;9.00;8.10;;;14.30;65.90;;;;;;5045034;28;20527;-66
2022/04/27 10:48:16;;;;;;;7.83;6.97;;;14.30;65.80;;;;;;5040653;28;20435;-67
2022/04/27 10:51:01;;;;;;;12.03;8.30;;;14.30;65.70;;;;;;5046832;28;20457;-68
2022/04/27 10:53:30;;;;;;;9.83;8.50;;;14.30;65.60;;;;;;5040749;28;20813;-68
2022/04/27 10:56:23;;;;;;;10.50;7.40;;;14.40;65.70;;;;;;5045633;28;20496;-66
2022/04/27 10:58:53;;;;;;;6.80;6.20;;;14.40;65.80;;;;;;5040614;28;20808;-68
2022/04/27 11:01:29;;;;;;;6.80;6.20;;;14.40;65.90;;;;;;5039837;28;20495;-67
2022/04/27 11:04:18;;;;;;;6.97;6.37;;;14.40;65.90;;;;;;5045274;28;20473;-68
2022/04/27 11:07:16;;;;;;;5.30;4.70;;;14.40;66.00;;;;;;5048882;28;20443;-68
2022/04/27 11:10:12;;;;;;;5.37;4.87;;;14.50;66.20;;;;;;5032127;28;20466;-67
2022/04/27 11:12:42;;;;;;;5.30;4.80;;;14.50;66.00;;;;;;5048076;28;21024;-67
2022/04/27 11:15:14;;;;;;;6.90;4.93;;;14.50;66.10;;;;;;5044210;28;20472;-68
2022/04/27 11:17:42;;;;;;;4.60;4.20;;;14.50;66.20;;;;;;5043973;28;21071;-68
2022/04/27 11:20:29;;;;;;;4.67;3.90;;;14.50;66.20;;;;;;5040779;28;20470;-69
2022/04/27 11:22:58;;;;;;;5.40;4.40;;;14.50;66.20;;;;;;5050158;28;20776;-66
2022/04/27 11:25:28;;;;;;;4.90;4.33;;;14.50;66.20;;;;;;5043844;28;20503;-68
2022/04/27 11:27:56;;;;;;;4.60;4.20;;;14.50;66.30;;;;;;5044184;28;20499;-68
2022/04/27 11:30:28;;;;;;;4.53;4.13;;;14.50;66.30;;;;;;5043310;28;20473;-68
2022/04/27 11:32:56;;;;;;;3.83;3.53;;;14.60;66.40;;;;;;5044113;28;20450;-68
2022/04/27 11:35:25;;;;;;;6.40;4.20;;;14.50;66.40;;;;;;5044472;28;20526;-68
2022/04/27 11:37:58;;;;;;;3.63;3.33;;;14.60;66.50;;;;;;5039625;28;20530;-68
2022/04/27 11:40:27;;;;;;;3.67;3.37;;;14.50;66.30;;;;;;5043777;28;20476;-70
2022/04/27 11:43:00;;;;;;;4.03;3.30;;;14.50;66.40;;;;;;5045542;28;20476;-66
2022/04/27 11:45:31;;;;;;;3.20;2.90;;;14.50;67.70;;;;;;5048562;28;20472;-68
2022/04/27 11:48:01;;;;;;;3.70;3.40;;;14.50;66.50;;;;;;5053013;28;20440;-66
2022/04/27 11:50:31;;;;;;;6.30;3.80;;;14.50;66.50;;;;;;5047778;28;20472;-67
2022/04/27 11:53:03;;;;;;;4.53;3.70;;;14.60;66.60;;;;;;5044526;28;20431;-68
2022/04/27 11:55:33;;;;;;;3.07;2.87;;;14.50;66.60;;;;;;5046593;28;20853;-67
2022/04/27 11:58:01;;;;;;;3.70;2.80;;;14.60;66.60;;;;;;5039403;28;20458;-67
2022/04/27 12:00:31;;;;;;;3.90;3.50;;;14.60;66.70;;;;;;5043609;28;20519;-67
2022/04/27 12:03:03;;;;;;;3.97;3.67;;;14.60;66.70;;;;;;5038997;28;20437;-69
2022/04/27 12:05:33;;;;;;;3.83;3.43;;;14.60;66.60;;;;;;5038610;28;20600;-68
2022/04/27 12:08:07;;;;;;;4.13;3.73;;;14.60;66.70;;;;;;5042381;28;20445;-68
2022/04/27 12:10:40;;;;;;;4.23;3.30;;;14.60;66.80;;;;;;5034303;28;20464;-69
2022/04/27 12:13:08;;;;;;;3.60;3.30;;;14.60;66.70;;;;;;5040438;28;20427;-68
2022/04/27 12:15:39;;;;;;;3.80;3.40;;;14.60;66.80;;;;;;5038447;28;20512;-68
2022/04/27 12:18:13;;;;;;;3.90;3.50;;;14.60;67.90;;;;;;5040882;28;20556;-67
2022/04/27 12:20:43;;;;;;;3.63;3.33;;;14.60;66.70;;;;;;5048244;28;21033;-68
2022/04/27 12:23:12;;;;;;;3.00;2.80;;;14.60;66.70;;;;;;5045842;28;20524;-68
2022/04/27 12:25:43;;;;;;;3.37;3.10;;;14.60;66.70;;;;;;5049513;28;20886;-68
2022/04/27 12:28:14;;;;;;;3.13;2.93;;;14.60;66.80;;;;;;5049582;28;20859;-67
2022/04/27 12:30:52;;;;;;;4.40;3.17;;;14.60;66.80;;;;;;5044121;28;20481;-65
2022/04/27 12:33:22;;;;;;;4.60;3.23;;;14.60;66.80;;;;;;5052355;28;20472;-66
2022/04/27 12:38:58;;;;;;;3.00;2.70;;;14.60;66.80;;;;;;5042673;28;21119;-67
2022/04/27 12:41:34;;;;;;;3.53;3.20;;;14.70;67.00;;;;;;5038565;28;20466;-66
2022/04/27 12:44:06;;;;;;;3.47;3.17;;;14.70;67.00;;;;;;5042155;28;20465;-66
2022/04/27 12:47:00;;;;;;;3.90;3.60;;;14.70;66.90;;;;;;5041863;28;20449;-66
2022/04/27 12:49:30;;;;;;;4.00;3.67;;;14.70;66.90;;;;;;5051984;28;20461;-67
2022/04/27 12:52:14;;;;;;;4.30;3.90;;;14.70;66.80;;;;;;5048020;28;20440;-67
2022/04/27 12:54:44;;;;;;;5.13;3.67;;;14.70;66.90;;;;;;5047651;28;20482;-67
2022/04/27 12:57:12;;;;;;;4.33;3.93;;;14.70;66.90;;;;;;5047481;28;20854;-69
2022/04/27 12:59:57;;;;;;;7.50;5.83;;;14.70;66.80;;;;;;5049672;28;20468;-68
2022/04/27 13:02:27;;;;;;;4.57;3.67;;;14.70;66.30;;;;;;5048172;28;20952;-68
2022/04/27 13:04:56;;;;;;;5.67;3.87;;;14.70;66.40;;;;;;5049111;28;20523;-67
2022/04/27 13:07:24;;;;;;;4.10;3.70;;;14.70;66.60;;;;;;5052727;28;20443;-68
2022/04/27 13:12:39;;;;;;;3.63;3.33;;;14.70;66.70;;;;;;5046505;28;20508;-65
2022/04/27 13:15:08;;;;;;;4.70;3.93;;;14.70;66.80;;;;;;5043275;28;20501;-68
2022/04/27 13:17:38;;;;;;;4.10;3.70;;;14.70;66.80;;;;;;5045519;28;20470;-67
2022/04/27 13:20:09;;;;;;;5.00;3.30;;;14.80;66.90;;;;;;5048498;28;20538;-67
2022/04/27 13:22:37;;;;;;;6.20;4.40;;;14.80;66.90;;;;;;5048963;28;20445;-66
2022/04/27 13:25:07;;;;;;;6.83;4.33;;;14.80;66.30;;;;;;5047937;28;20478;-67
2022/04/27 13:27:35;;;;;;;5.53;4.30;;;14.80;66.60;;;;;;5045027;28;20434;-66
2022/04/27 13:30:08;;;;;;;5.77;3.53;;;14.80;66.50;;;;;;5051159;28;20466;-67
2022/04/27 13:32:37;;;;;;;6.53;4.00;;;14.80;66.50;;;;;;5047545;28;20498;-68
2022/04/27 13:35:06;;;;;;;8.07;3.90;;;14.80;66.70;;;;;;5040565;28;20474;-68
2022/04/27 13:37:34;;;;;;;4.53;3.77;;;14.80;66.80;;;;;;5046942;28;20466;-67
2022/04/27 13:40:03;;;;;;;4.53;3.63;;;14.80;66.80;;;;;;5041081;28;20462;-66
2022/04/27 13:42:31;;;;;;;3.87;3.57;;;14.90;66.80;;;;;;5039762;28;20491;-67
2022/04/27 13:44:59;;;;;;;4.10;3.70;;;14.90;66.80;;;;;;5044950;28;20468;-68
2022/04/27 13:47:31;;;;;;;4.50;4.10;;;14.80;66.80;;;;;;5040173;28;20430;-67